قسنطينة, Algeria

09:34 PM CET on أعس×س 28, 2016 (GMT +0100)
Mohamed Boudiaf | | Change Station

Elev 2277 ft 36.28 °N, 6.62 °E | Updated 34 minutes ago

Clear
صافية
75 °F
Feels Like 75 °F
N
0
ريح متغير ريح from شمال

هذا اليوم
High -- | Low -- °F
--% Chance of Precip.
Yesterday
High -- | Low -- °F
Precip. -- في
الضغط 30.21 في
وضوح الرؤية -9999.0 أميال
سحابات
نقطة الندى 54 °F
الرطوبة 47%
Rainfall 0.00 في
عمق الثلج Not available.
6:02 AM 7:06 PM
الهلال الأخير, 13% visible
METAR DABC 282000Z 00000KT CAVOK 24/12 Q1023
الضغط 30.21 في
وضوح الرؤية -9999.0 أميال
سحابات
نقطة الندى 54 °F
الرطوبة 47%
Rainfall 0.00 في
عمق الثلج Not available.
6:02 AM 7:06 PM
الهلال الأخير, 13% visible
METAR DABC 282000Z 00000KT CAVOK 24/12 Q1023

10-Day Weather Forecast

No radar image for this location.
×

Almanac

علم الفلك

Aug. 28, 2016 Rise Set
Actual Time
Civil Twilight
Nautical Twilight
Astronomical Twilight
قمر
Length Of Visible Light
طول الیوم
Tomorrow will be .
, % of the Moon is Illuminated

Today's Extremes

Country Highs Country Lows

Community

WunderPhotos

Upload Photos

1,935,691 photos uploaded!

WunderBlog® & News

Nearby

جودة الهواء

  جودة الهواء AQ Index Pollutant
Not available.

عمق الثلج

Station Depth Elevation

Earthquake Activity

City Distance Mag. Time & Date
Minimum magnitude displayed is 2.5.

Coastal Water Temperatures

مكان درجات الحرارة

Stations

Nearby Weather Stations

Station Location الحرارة رياح باردة نقطة الندى الرطوبة ريح Precip. Elev تحديث Type